createdAt,value
2024-05-09T00:00:58.942Z,48.1
2024-05-09T00:02:16.069Z,48.2
2024-05-09T00:03:33.042Z,48.5
2024-05-09T00:04:50.071Z,49
2024-05-09T00:06:07.023Z,49.4
2024-05-09T00:07:23.979Z,49.9
2024-05-09T00:08:41.037Z,50.4
2024-05-09T00:09:58.002Z,50.7
2024-05-09T00:11:15.301Z,51.1
2024-05-09T00:12:31.969Z,51.3
2024-05-09T00:13:49.022Z,51.5
2024-05-09T00:15:06.052Z,51.7
2024-05-09T00:16:23.003Z,52
2024-05-09T00:17:40.366Z,51.9
2024-05-09T00:18:57.100Z,51.6
2024-05-09T00:20:17.574Z,51.4
2024-05-09T00:21:31.163Z,51
2024-05-09T00:22:48.003Z,50.9
2024-05-09T00:24:04.948Z,50.7
2024-05-09T00:25:22.046Z,50.6
2024-05-09T00:26:39.091Z,50.5
2024-05-09T00:27:56.052Z,50.3
2024-05-09T00:29:12.982Z,50.1
2024-05-09T00:30:33.814Z,50.1
2024-05-09T00:31:47.073Z,50
2024-05-09T00:33:04.700Z,50.2
2024-05-09T00:34:21.098Z,50.2
2024-05-09T00:35:38.488Z,50.2
2024-05-09T00:36:55.001Z,50.2
2024-05-09T00:38:12.012Z,50.2
2024-05-09T00:39:29.005Z,50.2
2024-05-09T00:40:46.188Z,50.3
2024-05-09T00:42:03.035Z,50.2
2024-05-09T00:43:19.999Z,50.2
2024-05-09T00:44:37.077Z,50.2
2024-05-09T00:45:54.188Z,50.1
2024-05-09T00:47:11.209Z,50.2
2024-05-09T00:48:28.136Z,50.1
2024-05-09T00:49:45.288Z,50.1
2024-05-09T00:51:02.339Z,50.2
2024-05-09T00:52:18.969Z,50.1
2024-05-09T00:53:36.113Z,50.2
2024-05-09T00:54:53.040Z,50.4
2024-05-09T00:56:10.275Z,50.4
2024-05-09T00:57:27.129Z,50.4
2024-05-09T00:58:44.211Z,50.4
2024-05-09T01:00:01.072Z,50.5
2024-05-09T01:01:18.371Z,50.5
2024-05-09T01:02:35.229Z,50.6
2024-05-09T01:03:52.238Z,50.5
2024-05-09T01:05:09.076Z,50.7
2024-05-09T01:06:26.009Z,50.8
2024-05-09T01:07:43.143Z,50.8
2024-05-09T01:09:00.070Z,50.9
2024-05-09T01:10:20.903Z,50.9
2024-05-09T01:11:34.247Z,50.9
2024-05-09T01:12:51.093Z,51
2024-05-09T01:14:08.182Z,51.1
2024-05-09T01:15:25.012Z,51.2
2024-05-09T01:16:42.441Z,51.3
2024-05-09T01:17:59.334Z,51.7
2024-05-09T01:19:16.456Z,52.3
2024-05-09T01:20:39.462Z,52.9
2024-05-09T01:21:50.017Z,53.4
2024-05-09T01:23:07.328Z,54
2024-05-09T01:24:24.046Z,54.4
2024-05-09T01:25:41.157Z,54.9
2024-05-09T01:26:58.089Z,55.4
2024-05-09T01:28:15.400Z,55.6
2024-05-09T01:29:32.181Z,55.9
2024-05-09T01:30:49.055Z,56.1
2024-05-09T01:32:06.332Z,56.1
2024-05-09T01:33:23.342Z,55.7
2024-05-09T01:34:40.081Z,55.3
2024-05-09T01:35:57.101Z,55
2024-05-09T01:37:14.196Z,54.7
2024-05-09T01:38:31.390Z,54.6
2024-05-09T01:39:48.079Z,54.3
2024-05-09T01:41:05.044Z,54.1
2024-05-09T01:42:22.278Z,53.9
2024-05-09T01:43:39.236Z,53.6
2024-05-09T01:44:56.161Z,53.5
2024-05-09T01:46:13.165Z,53.4
2024-05-09T01:47:30.361Z,53.3
2024-05-09T01:48:47.287Z,53.3
2024-05-09T01:50:06.719Z,53.2
2024-05-09T01:51:21.126Z,53.1
2024-05-09T01:52:38.147Z,53.1
2024-05-09T01:53:55.113Z,53.3
2024-05-09T01:55:12.173Z,53.3
2024-05-09T01:56:29.137Z,53.3
2024-05-09T01:57:46.214Z,53.3
2024-05-09T01:59:03.328Z,53.4
2024-05-09T02:00:26.199Z,53.3
2024-05-09T02:01:54.852Z,53.3
2024-05-09T02:02:54.234Z,53.3
2024-05-09T02:04:11.675Z,53.2
2024-05-09T02:05:28.654Z,53.1
2024-05-09T02:06:45.129Z,53.2
2024-05-09T02:08:02.288Z,53.3
2024-05-09T02:09:19.132Z,53.3
2024-05-09T02:10:36.221Z,53.2
2024-05-09T02:11:53.243Z,53.3
2024-05-09T02:13:10.276Z,53.3
2024-05-09T02:14:27.309Z,53.4
2024-05-09T02:15:44.463Z,53.4
2024-05-09T02:17:01.163Z,53.4
2024-05-09T02:18:18.339Z,53.5
2024-05-09T02:19:35.247Z,53.8
2024-05-09T02:20:52.286Z,53.8
2024-05-09T02:22:09.160Z,53.9
2024-05-09T02:23:26.364Z,53.9
2024-05-09T02:24:43.382Z,53.8
2024-05-09T02:26:00.244Z,53.9
2024-05-09T02:27:17.212Z,53.9
2024-05-09T02:28:34.263Z,53.9
2024-05-09T02:29:51.143Z,54
2024-05-09T02:31:08.130Z,54
2024-05-09T02:32:25.353Z,54
2024-05-09T02:33:42.626Z,54.1
2024-05-09T02:34:59.598Z,54.2
2024-05-09T02:36:16.132Z,54.6
2024-05-09T02:37:33.143Z,55.2
2024-05-09T02:38:50.523Z,55.7
2024-05-09T02:40:11.555Z,56.2
2024-05-09T02:41:24.379Z,56.8
2024-05-09T02:42:41.150Z,57.3
2024-05-09T02:43:58.190Z,57.7
2024-05-09T02:45:15.391Z,58.1
2024-05-09T02:46:32.276Z,58.2
2024-05-09T02:47:49.290Z,58.4
2024-05-09T02:49:06.465Z,58.6
2024-05-09T02:50:26.674Z,58.5
2024-05-09T02:51:40.183Z,58.1
2024-05-09T02:52:57.191Z,57.6
2024-05-09T02:54:14.353Z,57.3
2024-05-09T02:55:31.360Z,56.8
2024-05-09T02:56:48.232Z,56.4
2024-05-09T02:58:05.190Z,56
2024-05-09T02:59:22.552Z,55.9
2024-05-09T03:00:40.759Z,55.7
2024-05-09T03:01:56.200Z,55.5
2024-05-09T03:03:14.364Z,55.4
2024-05-09T03:04:30.287Z,55.4
2024-05-09T03:05:47.624Z,55.3
2024-05-09T03:07:04.208Z,55.3
2024-05-09T03:08:21.333Z,55.3
2024-05-09T03:09:38.644Z,55.2
2024-05-09T03:10:55.283Z,55.1
2024-05-09T03:12:12.297Z,55.3
2024-05-09T03:13:29.215Z,55.2
2024-05-09T03:14:46.300Z,55
2024-05-09T03:16:03.330Z,55
2024-05-09T03:17:20.369Z,54.9
2024-05-09T03:18:37.276Z,54.7
2024-05-09T03:19:54.210Z,54.7
2024-05-09T03:21:11.500Z,54.8
2024-05-09T03:22:28.190Z,55
2024-05-09T03:23:45.368Z,55.3
2024-05-09T03:25:02.194Z,55.5
2024-05-09T03:26:19.708Z,55.8
2024-05-09T03:27:36.233Z,55.9
2024-05-09T03:28:53.404Z,56
2024-05-09T03:30:12.613Z,56.1
2024-05-09T03:31:27.755Z,56.1
2024-05-09T03:32:44.407Z,56.3
2024-05-09T03:34:01.412Z,56.6
2024-05-09T03:35:18.493Z,57.1
2024-05-09T03:36:35.320Z,57.5
2024-05-09T03:37:52.240Z,57.8
2024-05-09T03:39:09.264Z,57.9
2024-05-09T03:40:26.838Z,57.9
2024-05-09T03:41:43.415Z,58.1
2024-05-09T03:43:00.244Z,58.5
2024-05-09T03:44:17.324Z,58.9
2024-05-09T03:45:34.416Z,59.4
2024-05-09T03:46:51.529Z,59.7
2024-05-09T03:48:08.562Z,59.9
2024-05-09T03:49:25.538Z,60
2024-05-09T03:50:42.456Z,60.1
2024-05-09T03:51:59.251Z,60.1
2024-05-09T03:53:16.513Z,60
2024-05-09T03:54:33.282Z,60.5
2024-05-09T03:55:50.537Z,61.2
2024-05-09T03:57:07.257Z,61.8
2024-05-09T03:58:24.260Z,62.2
2024-05-09T03:59:41.333Z,62.6
2024-05-09T04:00:58.593Z,62.9
2024-05-09T04:02:15.416Z,63.2
2024-05-09T04:03:32.542Z,63.3
2024-05-09T04:04:49.372Z,63.4
2024-05-09T04:06:06.580Z,63.3
2024-05-09T04:07:23.435Z,63.2
2024-05-09T04:08:40.395Z,62.7
2024-05-09T04:09:57.287Z,62.1
2024-05-09T04:11:14.611Z,61.3
2024-05-09T04:12:31.344Z,60.7
2024-05-09T04:13:48.373Z,60.3
2024-05-09T04:15:05.307Z,59.8
2024-05-09T04:16:22.661Z,59.5
2024-05-09T04:17:39.825Z,59.2
2024-05-09T04:18:56.518Z,58.9
2024-05-09T04:20:21.018Z,58.6
2024-05-09T04:21:30.806Z,58.2
2024-05-09T04:22:47.443Z,57.8
2024-05-09T04:24:04.380Z,57.8
2024-05-09T04:25:21.356Z,57.4
2024-05-09T04:26:38.404Z,57.1
2024-05-09T04:27:55.404Z,56.7
2024-05-09T04:29:12.490Z,56.4
2024-05-09T04:30:34.217Z,56.2
2024-05-09T04:31:47.952Z,56
2024-05-09T04:33:04.637Z,55.8
2024-05-09T04:34:21.510Z,55.6
2024-05-09T04:35:38.991Z,55.3
2024-05-09T04:36:55.496Z,55.2
2024-05-09T04:38:12.586Z,54.7
2024-05-09T04:39:29.391Z,54.3
2024-05-09T04:40:46.637Z,54.1
2024-05-09T04:42:03.457Z,54
2024-05-09T04:43:20.357Z,53.8
2024-05-09T04:44:37.436Z,53.6
2024-05-09T04:45:58.309Z,53.3
2024-05-09T04:47:15.679Z,53.1
2024-05-09T04:48:32.501Z,53.1
2024-05-09T04:49:49.638Z,53.1
2024-05-09T04:51:09.406Z,53.2
2024-05-09T04:52:26.807Z,52.8
2024-05-09T04:53:43.725Z,52.5
2024-05-09T04:55:00.366Z,52.3
2024-05-09T04:56:17.519Z,51.9
2024-05-09T04:57:34.747Z,52.3
2024-05-09T04:58:51.843Z,52.9
2024-05-09T05:00:14.294Z,53.4
2024-05-09T05:01:25.547Z,53.6
2024-05-09T05:02:43.019Z,53.8
2024-05-09T05:03:59.625Z,54.1
2024-05-09T05:05:16.540Z,54.3
2024-05-09T05:06:33.377Z,54.4
2024-05-09T05:07:50.733Z,54.1
2024-05-09T05:09:07.504Z,53.7
2024-05-09T05:10:29.404Z,53.2
2024-05-09T05:11:41.477Z,52.9
2024-05-09T05:12:59.191Z,52.7
2024-05-09T05:14:16.812Z,52.2
2024-05-09T05:15:33.843Z,51.5
2024-05-09T05:16:50.605Z,50.8
2024-05-09T05:18:07.751Z,50.5
2024-05-09T05:19:24.841Z,50.4
2024-05-09T05:20:41.658Z,50.5
2024-05-09T05:21:58.545Z,50.5
2024-05-09T05:23:16.064Z,50.3
2024-05-09T05:24:32.419Z,49.9
2024-05-09T05:25:49.658Z,49.8
2024-05-09T05:27:06.843Z,49.7
2024-05-09T05:28:23.593Z,49.5
2024-05-09T05:29:40.627Z,49
2024-05-09T05:30:57.852Z,48.5
2024-05-09T05:32:14.782Z,48.1
2024-05-09T05:33:31.865Z,48.2
2024-05-09T05:34:48.569Z,48.4
2024-05-09T05:36:05.598Z,48.4
2024-05-09T05:37:22.644Z,48.2
2024-05-09T05:38:39.861Z,48.1
2024-05-09T05:39:56.669Z,48.2
2024-05-09T05:41:13.699Z,47.9
2024-05-09T05:42:33.877Z,47.7
2024-05-09T05:43:50.693Z,47.6
2024-05-09T05:45:09.737Z,47.8
2024-05-09T05:46:24.828Z,47.8
2024-05-09T05:47:41.930Z,47.7
2024-05-09T05:48:58.921Z,47.6
2024-05-09T05:50:20.890Z,47.4
2024-05-09T05:51:33.166Z,47.1
2024-05-09T05:52:49.699Z,47
2024-05-09T05:54:06.670Z,46.9
2024-05-09T05:55:23.697Z,46.6
2024-05-09T05:56:40.936Z,46.1
2024-05-09T05:57:57.820Z,46.2
2024-05-09T05:59:15.414Z,46.4
2024-05-09T06:00:36.970Z,46.6
2024-05-09T06:01:49.099Z,46.7
2024-05-09T06:03:05.808Z,46.4
2024-05-09T06:04:22.806Z,46.4
2024-05-09T06:05:39.929Z,46.3
2024-05-09T06:06:57.000Z,46.5
2024-05-09T06:08:14.149Z,46.7
2024-05-09T06:09:30.912Z,47.1
2024-05-09T06:10:47.907Z,47.5
2024-05-09T06:12:05.344Z,47.4
2024-05-09T06:13:21.733Z,47.9
2024-05-09T06:14:38.606Z,48.7
2024-05-09T06:15:55.672Z,48.5
2024-05-09T06:17:12.688Z,48.5
2024-05-09T06:18:30.256Z,48.4
2024-05-09T06:19:47.363Z,48.3
2024-05-09T06:21:04.857Z,47.6
2024-05-09T06:22:21.789Z,46.6
2024-05-09T06:23:39.237Z,45.2
2024-05-09T06:24:55.689Z,43.1
2024-05-09T06:26:12.712Z,41.8
2024-05-09T06:27:29.662Z,40.1
2024-05-09T06:28:47.190Z,39
2024-05-09T06:30:03.826Z,37.6
2024-05-09T06:31:20.600Z,37.1
2024-05-09T06:32:37.945Z,36.1
2024-05-09T06:33:57.516Z,35
2024-05-09T06:35:17.209Z,34.3
2024-05-09T06:36:33.573Z,33.3
2024-05-09T06:37:51.149Z,32.9
2024-05-09T06:39:07.603Z,32.7
2024-05-09T06:40:25.766Z,32.4
2024-05-09T06:41:41.854Z,32.1
2024-05-09T06:42:58.749Z,31.4
2024-05-09T06:44:16.679Z,30.7
2024-05-09T06:45:33.585Z,30.2
2024-05-09T06:46:50.876Z,29.3
2024-05-09T06:48:07.830Z,29.1
2024-05-09T06:49:24.743Z,29
2024-05-09T06:50:41.657Z,29.3
2024-05-09T06:51:59.101Z,30.2
2024-05-09T06:53:16.116Z,29.9
2024-05-09T06:54:32.762Z,29.2
2024-05-09T06:55:49.798Z,28.7
2024-05-09T06:57:07.053Z,28.4
2024-05-09T06:58:23.688Z,28.5
2024-05-09T06:59:40.750Z,28.1
2024-05-09T07:00:57.948Z,28.4
2024-05-09T07:02:14.685Z,27.8
2024-05-09T07:03:31.910Z,28.2
2024-05-09T07:04:48.900Z,28.1
2024-05-09T07:06:05.712Z,28.5
2024-05-09T07:07:22.940Z,29.3
2024-05-09T07:08:39.809Z,29.2
2024-05-09T07:09:56.792Z,29.4
2024-05-09T07:11:13.791Z,29.8
2024-05-09T07:12:30.862Z,29.5
2024-05-09T07:13:47.744Z,29.3
2024-05-09T07:15:04.899Z,28.5
2024-05-09T07:16:21.653Z,28.3
2024-05-09T07:17:38.972Z,27.7
2024-05-09T07:18:56.001Z,27.3
2024-05-09T07:20:19.814Z,26.9
2024-05-09T07:21:29.609Z,26.8
2024-05-09T07:22:47.417Z,26.7
2024-05-09T07:24:04.711Z,26.1
2024-05-09T07:25:24.389Z,26.1
2024-05-09T07:26:41.243Z,26.7
2024-05-09T07:27:57.891Z,26.3
2024-05-09T07:29:15.191Z,26.3
2024-05-09T07:30:33.803Z,26.2
2024-05-09T07:31:49.008Z,25.8
2024-05-09T07:33:05.967Z,25.3
2024-05-09T07:34:22.915Z,24.8
2024-05-09T07:35:39.857Z,24.2
2024-05-09T07:36:56.913Z,24.2
2024-05-09T07:38:14.126Z,24.9
2024-05-09T07:39:30.880Z,25.8
2024-05-09T07:40:48.523Z,26.4
2024-05-09T07:42:05.737Z,26.4
2024-05-09T07:43:22.861Z,26.4
2024-05-09T07:44:39.832Z,27.3
2024-05-09T07:45:58.429Z,27
2024-05-09T07:47:47.902Z,27.2
2024-05-09T07:49:13.594Z,26.5
2024-05-09T07:50:35.710Z,26.7
2024-05-09T07:53:08.234Z,27.2
2024-05-09T07:53:42.235Z,27.9
2024-05-09T07:54:56.727Z,27
2024-05-09T07:56:13.100Z,26.8
2024-05-09T07:57:29.926Z,27.9
2024-05-09T07:58:46.731Z,27.8
2024-05-09T08:00:04.493Z,27.8
2024-05-09T08:01:21.261Z,27.1
2024-05-09T08:02:40.229Z,26.8
2024-05-09T08:03:56.857Z,26.4
2024-05-09T08:05:13.874Z,26.1
2024-05-09T08:06:30.834Z,26.2
2024-05-09T08:07:47.937Z,25.7
2024-05-09T08:09:07.829Z,25.6
2024-05-09T08:10:24.622Z,25.7
2024-05-09T08:11:39.216Z,25.6
2024-05-09T08:12:56.150Z,25.7
2024-05-09T08:14:12.874Z,26
2024-05-09T08:15:32.493Z,26.8
2024-05-09T08:16:48.777Z,27.7
2024-05-09T08:18:05.790Z,28
2024-05-09T08:19:22.963Z,28
2024-05-09T08:20:40.277Z,27.6
2024-05-09T08:21:56.743Z,27.6
2024-05-09T08:23:13.771Z,28.1
2024-05-09T08:24:30.902Z,28.1
2024-05-09T08:25:48.083Z,28.1
2024-05-09T08:27:04.994Z,28.2
2024-05-09T08:28:21.973Z,28.5
2024-05-09T08:29:38.797Z,28.2
2024-05-09T08:30:55.976Z,27.6
2024-05-09T08:32:13.374Z,27.4
2024-05-09T08:33:30.522Z,27.5
2024-05-09T08:34:47.099Z,27.5
2024-05-09T08:36:03.856Z,27.9
2024-05-09T08:37:22.288Z,27.7
2024-05-09T08:38:37.729Z,27.5
2024-05-09T08:39:55.819Z,27.6
2024-05-09T08:41:13.291Z,28.4
2024-05-09T08:42:29.924Z,29.4
2024-05-09T08:43:47.211Z,29.1
2024-05-09T08:45:03.997Z,28.7
2024-05-09T08:46:21.157Z,28.7
2024-05-09T08:47:37.862Z,28.3
2024-05-09T08:48:55.041Z,28.1
2024-05-09T08:50:20.173Z,27.7
2024-05-09T08:51:28.865Z,27.4
2024-05-09T08:52:45.762Z,27.4
2024-05-09T08:54:03.013Z,27.8
2024-05-09T08:55:20.123Z,28.6
2024-05-09T08:56:36.784Z,28.4
2024-05-09T08:57:53.827Z,28.7
2024-05-09T08:59:11.083Z,28.9
2024-05-09T09:00:33.338Z,29.3
2024-05-09T09:01:44.916Z,29.9
2024-05-09T09:03:01.904Z,29.6
2024-05-09T09:04:19.969Z,29.6
2024-05-09T09:05:37.499Z,29.6
2024-05-09T09:06:56.535Z,29.4
2024-05-09T09:08:11.140Z,28.9
2024-05-09T09:09:28.292Z,29.4
2024-05-09T09:10:45.120Z,29.2
2024-05-09T09:12:02.096Z,28.9
2024-05-09T09:13:19.317Z,28.2
2024-05-09T09:14:35.916Z,27.6
2024-05-09T09:15:53.237Z,27.7
2024-05-09T09:17:10.200Z,27.4
2024-05-09T09:18:27.294Z,27.2
2024-05-09T09:19:44.183Z,27.2
2024-05-09T09:21:01.784Z,27.7
2024-05-09T09:22:29.473Z,27.9
2024-05-09T09:23:46.050Z,27.8
2024-05-09T09:25:03.151Z,28.1
2024-05-09T09:26:20.382Z,27.7
2024-05-09T09:27:37.356Z,27.5
2024-05-09T09:28:54.105Z,26.6
2024-05-09T09:30:22.561Z,25.4
2024-05-09T09:31:28.440Z,25.2
2024-05-09T09:32:45.092Z,25.2
2024-05-09T09:34:02.414Z,24.7
2024-05-09T09:35:20.107Z,25
2024-05-09T09:36:37.089Z,24.9
2024-05-09T09:37:54.347Z,24.7
2024-05-09T09:39:11.308Z,25.1
2024-05-09T09:40:31.316Z,25.6
2024-05-09T09:41:45.127Z,26.7
2024-05-09T09:43:01.911Z,27.6
2024-05-09T09:44:19.592Z,27.8
2024-05-09T09:45:37.116Z,27.9
2024-05-09T09:46:53.920Z,27.7
2024-05-09T09:48:11.230Z,27.4
2024-05-09T09:49:28.157Z,27.2
2024-05-09T09:50:45.022Z,27.2
2024-05-09T09:52:02.115Z,27.3
2024-05-09T09:53:19.818Z,27.4
2024-05-09T09:54:37.996Z,28
2024-05-09T09:55:55.814Z,27.8
2024-05-09T09:57:13.390Z,27.9
2024-05-09T09:58:30.054Z,28.2
2024-05-09T09:59:47.131Z,27.9
2024-05-09T10:01:03.896Z,27.8
2024-05-09T10:02:21.277Z,28.2
2024-05-09T10:03:38.090Z,28
2024-05-09T10:04:55.438Z,28.8
2024-05-09T10:06:12.146Z,27.6
2024-05-09T10:07:28.931Z,27.1
2024-05-09T10:08:45.911Z,27.9
2024-05-09T10:10:04.127Z,27.7
2024-05-09T10:11:21.527Z,27.8
2024-05-09T10:12:38.071Z,27.1
2024-05-09T10:13:55.580Z,26.6
2024-05-09T10:15:13.439Z,27.4
2024-05-09T10:16:30.606Z,27.9
2024-05-09T10:17:53.376Z,27.5
2024-05-09T10:19:10.254Z,26.8
2024-05-09T10:20:32.452Z,26.7
2024-05-09T10:21:55.952Z,26.3
2024-05-09T10:23:12.992Z,26
2024-05-09T10:24:30.048Z,26.3
2024-05-09T10:25:47.190Z,27.2
2024-05-09T10:27:04.021Z,27.1
2024-05-09T10:28:21.281Z,26.6
2024-05-09T10:29:38.248Z,26.2
2024-05-09T10:30:55.377Z,26.6
2024-05-09T10:32:12.206Z,26
2024-05-09T10:33:29.276Z,25.9
2024-05-09T10:34:46.372Z,25.6
2024-05-09T10:36:03.215Z,25.8
2024-05-09T10:37:20.404Z,25.7
2024-05-09T10:38:36.947Z,26.5
2024-05-09T10:39:54.130Z,26.7
2024-05-09T10:41:11.272Z,26.6
2024-05-09T10:42:28.279Z,26.8
2024-05-09T10:43:45.129Z,27.2
2024-05-09T10:45:02.350Z,27.8
2024-05-09T10:46:19.256Z,28.2
2024-05-09T10:47:36.463Z,28.3
2024-05-09T10:48:53.223Z,28.1
2024-05-09T10:50:15.621Z,28.6
2024-05-09T10:51:26.968Z,28.6
2024-05-09T10:52:44.302Z,28
2024-05-09T10:54:01.177Z,28.1
2024-05-09T10:55:18.104Z,28
2024-05-09T10:56:35.324Z,28.4
2024-05-09T10:57:52.362Z,28.3
2024-05-09T10:59:09.527Z,27.7
2024-05-09T11:00:30.052Z,28
2024-05-09T11:01:43.232Z,27.3
2024-05-09T11:03:00.104Z,27.3
2024-05-09T11:04:20.595Z,28
2024-05-09T11:05:41.259Z,28.9
2024-05-09T11:06:55.796Z,29.1
2024-05-09T11:08:13.196Z,29
2024-05-09T11:09:30.106Z,29
2024-05-09T11:10:47.217Z,28.3
2024-05-09T11:12:04.679Z,27.9
2024-05-09T11:13:21.175Z,26.5
2024-05-09T11:14:40.747Z,25.4
2024-05-09T11:15:55.388Z,24.7
2024-05-09T11:17:27.618Z,25
2024-05-09T11:18:44.647Z,25.6
2024-05-09T11:20:01.215Z,25.9
2024-05-09T11:21:18.257Z,25.7
2024-05-09T11:22:35.561Z,25.5
2024-05-09T11:23:52.636Z,25
2024-05-09T11:25:09.439Z,24.9
2024-05-09T11:26:26.416Z,24.6
2024-05-09T11:27:44.256Z,25.1
2024-05-09T11:29:01.453Z,24.9
2024-05-09T11:30:26.444Z,24.3
2024-05-09T11:31:38.195Z,24.7
2024-05-09T11:32:55.174Z,25.5
2024-05-09T11:34:12.234Z,25.6
2024-05-09T11:35:29.250Z,26.4
2024-05-09T11:36:46.778Z,26.6
2024-05-09T11:38:03.412Z,26.7
2024-05-09T11:39:20.104Z,27
2024-05-09T11:40:37.880Z,27.3
2024-05-09T11:41:55.426Z,27.8
2024-05-09T11:43:12.500Z,28.9
2024-05-09T11:44:29.525Z,28.6
2024-05-09T11:45:46.229Z,28.4
2024-05-09T11:47:03.153Z,28.4
2024-05-09T11:48:20.385Z,28
2024-05-09T11:49:37.773Z,28.2
2024-05-09T11:50:55.813Z,28.1
2024-05-09T11:52:12.662Z,28
2024-05-09T11:53:29.511Z,28.2
2024-05-09T11:54:46.344Z,28.3
2024-05-09T11:56:03.462Z,28.3
2024-05-09T11:57:20.352Z,28.4
2024-05-09T11:58:37.953Z,28.6
2024-05-09T11:59:55.246Z,28.6
2024-05-09T12:01:12.266Z,28.5
2024-05-09T12:02:29.360Z,28.4
2024-05-09T12:03:46.381Z,29
2024-05-09T12:05:03.600Z,28.4
2024-05-09T12:06:23.069Z,28.2
2024-05-09T12:07:40.097Z,28.2
2024-05-09T12:08:57.380Z,28.9
2024-05-09T12:10:17.039Z,28.6
2024-05-09T12:11:31.440Z,29.1
2024-05-09T12:12:48.367Z,29.1
2024-05-09T12:14:05.307Z,28.9
2024-05-09T12:15:22.448Z,28.4
2024-05-09T12:16:39.753Z,28.5
2024-05-09T12:17:58.315Z,28.7
2024-05-09T12:19:13.450Z,29.3
2024-05-09T12:21:47.634Z,28.5
2024-05-09T12:23:05.021Z,28.4
2024-05-09T12:24:22.508Z,28.1
2024-05-09T12:25:40.053Z,27.5
2024-05-09T12:26:56.667Z,27.1
2024-05-09T12:28:13.732Z,26.3
2024-05-09T12:29:30.226Z,25.9
2024-05-09T12:30:47.463Z,26.1
2024-05-09T12:32:04.559Z,26.8
2024-05-09T12:33:22.140Z,27.5
2024-05-09T12:34:39.389Z,28.3
2024-05-09T12:35:56.645Z,28.7
2024-05-09T12:37:13.580Z,28.5
2024-05-09T12:38:30.390Z,27.2
2024-05-09T12:39:47.562Z,27.2
2024-05-09T12:41:04.619Z,27.5
2024-05-09T12:42:26.394Z,27.7
2024-05-09T12:43:38.251Z,27.3
2024-05-09T12:44:55.862Z,27.6
2024-05-09T12:46:15.381Z,28
2024-05-09T12:47:32.590Z,28.3
2024-05-09T12:48:49.470Z,28.8
2024-05-09T12:50:08.258Z,29.4
2024-05-09T12:51:23.193Z,29.6
2024-05-09T12:52:40.401Z,30
2024-05-09T12:53:57.322Z,29.7
2024-05-09T12:55:14.492Z,29.7
2024-05-09T12:56:31.317Z,29.5
2024-05-09T12:57:48.312Z,29.5
2024-05-09T12:59:05.428Z,28.7
2024-05-09T13:00:27.945Z,29
2024-05-09T13:01:43.908Z,28.7
2024-05-09T13:03:01.589Z,27.6
2024-05-09T13:04:26.234Z,27.2
2024-05-09T13:05:43.575Z,27.2
2024-05-09T13:07:01.175Z,27.2
2024-05-09T13:08:18.418Z,26.6
2024-05-09T13:09:35.988Z,26.5
2024-05-09T13:10:52.485Z,25.7
2024-05-09T13:12:09.385Z,25.6
2024-05-09T13:13:26.406Z,26.3
2024-05-09T13:14:43.421Z,26.5
2024-05-09T13:16:00.824Z,25.3
2024-05-09T13:17:17.624Z,25.1
2024-05-09T13:18:34.624Z,25
2024-05-09T13:19:51.656Z,25.5
2024-05-09T13:21:08.359Z,25.7
2024-05-09T13:22:25.508Z,25.5
2024-05-09T13:23:45.474Z,26
2024-05-09T13:25:02.879Z,26.5
2024-05-09T13:26:19.623Z,26.9
2024-05-09T13:27:36.434Z,27.5
2024-05-09T13:28:53.271Z,27.6
2024-05-09T13:30:14.616Z,26.9
2024-05-09T13:31:27.600Z,26.8
2024-05-09T13:32:44.489Z,27.1
2024-05-09T13:34:01.825Z,27.5
2024-05-09T13:35:18.702Z,28.1
2024-05-09T13:36:35.482Z,27.8
2024-05-09T13:37:52.581Z,26
2024-05-09T13:39:09.610Z,25.4
2024-05-09T13:40:29.765Z,25.2
2024-05-09T13:41:44.064Z,25.5
2024-05-09T13:43:01.397Z,25.5
2024-05-09T13:44:18.342Z,26.2
2024-05-09T13:45:38.691Z,25.9
2024-05-09T13:46:53.074Z,26.5
2024-05-09T13:48:09.881Z,26.6
2024-05-09T13:49:26.725Z,25.8
2024-05-09T13:50:44.012Z,25.8
2024-05-09T13:55:21.044Z,24.9
2024-05-09T13:55:28.807Z,25
2024-05-09T13:56:15.942Z,25.5
2024-05-09T13:56:51.531Z,25.6
2024-05-09T13:58:11.864Z,25.5
2024-05-09T13:59:43.442Z,25.5
2024-05-09T14:01:00.662Z,26.5
2024-05-09T14:02:21.205Z,26.7
2024-05-09T14:03:53.594Z,26.8
2024-05-09T14:05:11.227Z,26.4
2024-05-09T14:06:29.055Z,25.9
2024-05-09T14:07:48.464Z,25.6
2024-05-09T14:09:20.676Z,25.7
2024-05-09T14:10:37.927Z,25.7
2024-05-09T14:11:56.020Z,25.6
2024-05-09T14:13:13.179Z,25.6
2024-05-09T14:14:30.440Z,26.1
2024-05-09T14:15:54.472Z,25.3
2024-05-09T14:17:11.833Z,25.4
2024-05-09T14:18:28.555Z,26.1
2024-05-09T14:19:45.457Z,26.7
2024-05-09T14:21:05.775Z,27.2
2024-05-09T14:22:22.543Z,27.3
2024-05-09T14:23:39.867Z,27
2024-05-09T14:24:57.042Z,26.6
2024-05-09T14:26:14.462Z,27.1
2024-05-09T14:27:31.888Z,27
2024-05-09T14:28:49.157Z,27
2024-05-09T14:30:12.058Z,27.2
2024-05-09T14:31:24.686Z,27.5
2024-05-09T14:32:41.559Z,27.7
2024-05-09T14:33:59.214Z,27.4
2024-05-09T14:35:21.089Z,27.3
2024-05-09T14:36:38.756Z,27.4
2024-05-09T14:37:55.489Z,27.7
2024-05-09T14:39:12.605Z,27.2
2024-05-09T14:40:36.231Z,27.4
2024-05-09T14:41:46.937Z,27.5
2024-05-09T14:43:03.981Z,27
2024-05-09T14:44:20.472Z,26.4
2024-05-09T14:45:37.443Z,25.9
2024-05-09T14:46:55.926Z,25.4
2024-05-09T14:48:12.600Z,25.4
2024-05-09T14:49:29.900Z,25.3
2024-05-09T14:50:48.375Z,25.9
2024-05-09T14:52:21.392Z,26.1
2024-05-09T14:53:38.875Z,25.9
2024-05-09T14:54:59.995Z,25.9
2024-05-09T14:56:12.795Z,25.5
2024-05-09T14:57:30.251Z,25.9
2024-05-09T14:58:47.708Z,25.5
2024-05-09T15:00:06.874Z,25.7
2024-05-09T15:01:21.808Z,26.4
2024-05-09T15:02:39.092Z,26.5
2024-05-09T15:03:56.684Z,26.7
2024-05-09T15:05:14.283Z,27.4
2024-05-09T15:06:32.163Z,27
2024-05-09T15:07:49.754Z,27.1
2024-05-09T15:09:06.630Z,27.1
2024-05-09T15:10:27.424Z,27.1
2024-05-09T15:11:40.756Z,27.5
2024-05-09T15:12:57.631Z,27.5
2024-05-09T15:14:14.950Z,27.4
2024-05-09T15:15:31.879Z,27.3
2024-05-09T15:16:49.098Z,27.5
2024-05-09T15:18:06.228Z,27.4
2024-05-09T15:19:22.753Z,27.6
2024-05-09T15:20:40.622Z,27.8
2024-05-09T15:21:57.857Z,27.9
2024-05-09T15:23:14.911Z,27.9
2024-05-09T15:24:31.618Z,28.3
2024-05-09T15:25:49.168Z,28
2024-05-09T15:27:05.730Z,27.5
2024-05-09T15:28:22.730Z,27.1
2024-05-09T15:29:39.696Z,27.2
2024-05-09T15:30:56.767Z,27.4
2024-05-09T15:32:13.653Z,27.8
2024-05-09T15:33:30.887Z,27.8
2024-05-09T15:34:47.816Z,28
2024-05-09T15:36:05.195Z,28.2
2024-05-09T15:37:22.674Z,28.6
2024-05-09T15:38:39.685Z,28.8
2024-05-09T15:39:56.542Z,28.8
2024-05-09T15:41:14.467Z,28.8
2024-05-09T15:42:32.001Z,29
2024-05-09T15:43:48.839Z,28.9
2024-05-09T15:45:05.869Z,29.2
2024-05-09T15:46:22.905Z,29.6
2024-05-09T15:47:39.826Z,29
2024-05-09T15:48:57.011Z,28.6
2024-05-09T15:50:17.305Z,28.3
2024-05-09T15:51:30.805Z,28.1
2024-05-09T15:52:47.650Z,27.8
2024-05-09T15:54:05.096Z,27.8
2024-05-09T15:55:21.859Z,27.5
2024-05-09T15:56:38.711Z,27.8
2024-05-09T15:57:55.695Z,27.3
2024-05-09T15:59:12.808Z,27.5
2024-05-09T16:00:35.619Z,28.1
2024-05-09T16:01:46.834Z,27.8
2024-05-09T16:03:07.414Z,27.7
2024-05-09T16:04:23.859Z,27.7
2024-05-09T16:05:41.353Z,28.1
2024-05-09T16:06:57.856Z,28
2024-05-09T16:08:14.735Z,27.7
2024-05-09T16:09:35.096Z,27.7
2024-05-09T16:10:52.243Z,27.8
2024-05-09T16:12:08.703Z,27.3
2024-05-09T16:13:25.790Z,26.5
2024-05-09T16:14:42.712Z,26.2
2024-05-09T16:15:59.958Z,26.4
2024-05-09T16:17:17.024Z,26
2024-05-09T16:18:33.774Z,26
2024-05-09T16:19:50.821Z,25.7
2024-05-09T16:21:07.675Z,25.9
2024-05-09T16:22:24.650Z,25.9
2024-05-09T16:23:41.553Z,26.1
2024-05-09T16:24:58.638Z,26.1
2024-05-09T16:26:15.591Z,26.1
2024-05-09T16:27:32.959Z,26.4
2024-05-09T16:28:49.623Z,26.6
2024-05-09T16:30:09.288Z,26.6
2024-05-09T16:31:23.776Z,27.2
2024-05-09T16:32:40.761Z,27.3
2024-05-09T16:33:58.379Z,27.4
2024-05-09T16:35:14.626Z,27.5
2024-05-09T16:36:31.964Z,27.4
2024-05-09T16:37:48.633Z,27.6
2024-05-09T16:39:05.607Z,27.8
2024-05-09T16:40:33.932Z,27.7
2024-05-09T16:41:46.957Z,27.4
2024-05-09T16:43:03.932Z,27.7
2024-05-09T16:44:20.651Z,27.6
2024-05-09T16:45:37.856Z,27.6
2024-05-09T16:46:54.631Z,27.4
2024-05-09T16:48:11.782Z,26.9
2024-05-09T16:49:28.821Z,26.8
2024-05-09T16:50:45.610Z,26.9
2024-05-09T16:52:02.681Z,26.6
2024-05-09T16:53:19.704Z,26.7
2024-05-09T16:54:36.728Z,26.8
2024-05-09T16:55:53.655Z,26.6
2024-05-09T16:57:10.668Z,26.6
2024-05-09T16:58:27.679Z,26.5
2024-05-09T16:59:44.648Z,26.6
2024-05-09T17:01:01.774Z,26.7
2024-05-09T17:02:18.802Z,26.8
2024-05-09T17:03:35.829Z,26.5
2024-05-09T17:04:52.944Z,26.3
2024-05-09T17:06:09.621Z,26.1
2024-05-09T17:07:26.697Z,26.3
2024-05-09T17:08:43.636Z,26.5
2024-05-09T17:10:00.792Z,26.4
2024-05-09T17:11:17.613Z,26.6
2024-05-09T17:12:34.749Z,26.7
2024-05-09T17:13:51.733Z,26.6
2024-05-09T17:15:08.804Z,26.8
2024-05-09T17:16:25.857Z,26.5
2024-05-09T17:17:42.749Z,26.6